Time;durP1;ratioP1;P1;durP2;ratioP2;P2;SDS_P1;SDS_P2;PMS_P1;PMS_P2;Temp;Humidity;BMP_temperature;BMP_pressure;BME280_temperature;BME280_humidity;BME280_pressure;Samples;Min_cycle;Max_cycle;Signal;HPM_P1;HPM_P2
2022/12/02 00:01:38;;;;;;;2.38;1.40;;;;;;;5.15;100.00;100997.13;5084401;28;20394;-72
2022/12/02 00:04:18;;;;;;;2.00;1.08;;;;;;;5.15;100.00;100994.53;5089485;28;20024;-73
2022/12/02 00:06:43;;;;;;;2.00;1.38;;;;;;;5.18;100.00;100987.44;5090832;28;20027;-73
2022/12/02 00:09:20;;;;;;;1.95;1.15;;;;;;;5.19;100.00;100993.44;5092685;28;20047;-73
2022/12/02 00:11:46;;;;;;;2.50;0.95;;;;;;;5.16;100.00;100985.88;5084140;28;20039;-72
2022/12/02 00:14:21;;;;;;;3.00;1.30;;;;;;;5.15;100.00;100984.22;5092404;28;20040;-72
2022/12/02 00:16:47;;;;;;;2.97;1.50;;;;;;;5.18;100.00;100978.84;5087466;28;20106;-73
2022/12/02 00:19:12;;;;;;;2.10;1.40;;;;;;;5.19;100.00;100981.34;5090087;28;20043;-73
2022/12/02 00:21:38;;;;;;;2.42;1.58;;;;;;;5.18;100.00;100984.03;5091364;28;20042;-72
2022/12/02 00:24:03;;;;;;;3.17;2.00;;;;;;;5.16;100.00;100985.88;5088094;28;20058;-72
2022/12/02 00:26:29;;;;;;;2.08;1.33;;;;;;;5.17;100.00;100982.38;5090062;28;20028;-72
2022/12/02 00:28:54;;;;;;;3.85;1.88;;;;;;;5.16;100.00;100975.53;5090036;28;20063;-72
2022/12/02 00:31:20;;;;;;;4.63;2.08;;;;;;;5.14;100.00;100982.56;5089360;28;20044;-72
2022/12/02 00:33:45;;;;;;;3.38;1.80;;;;;;;5.16;100.00;100975.53;5088656;28;20030;-72
2022/12/02 00:36:10;;;;;;;4.45;1.77;;;;;;;5.19;100.00;100980.50;5094748;28;20044;-72
2022/12/02 00:38:36;;;;;;;4.03;2.03;;;;;;;5.17;100.00;100975.44;5089053;28;20027;-72
2022/12/02 00:41:01;;;;;;;2.25;1.50;;;;;;;5.13;100.00;100973.16;5088515;28;20427;-72
2022/12/02 00:48:55;;;;;;;10.63;4.50;;;;;;;5.08;100.00;100975.19;5084919;28;20229;-72
2022/12/02 00:51:20;;;;;;;7.35;2.13;;;;;;;5.08;100.00;100970.03;5090249;28;20044;-72
2022/12/02 00:53:46;;;;;;;3.97;1.88;;;;;;;5.11;100.00;100968.09;5086388;28;20028;-72
2022/12/02 00:56:11;;;;;;;6.65;2.63;;;;;;;5.09;100.00;100963.94;5088942;28;20069;-72
2022/12/02 00:58:36;;;;;;;3.58;1.80;;;;;;;5.08;100.00;100967.44;5069133;28;20043;-72
2022/12/02 01:01:02;;;;;;;11.18;5.38;;;;;;;5.07;100.00;100970.94;5090042;28;20024;-72
2022/12/02 01:03:27;;;;;;;10.77;5.90;;;;;;;5.06;100.00;100964.97;5087457;28;20035;-72
2022/12/02 01:05:53;;;;;;;6.70;4.15;;;;;;;5.06;100.00;100964.13;5090313;28;20032;-72
2022/12/02 01:08:21;;;;;;;8.52;4.13;;;;;;;5.10;100.00;100963.00;5089228;28;20101;-73
2022/12/02 01:10:46;;;;;;;7.97;5.53;;;;;;;5.08;100.00;100965.69;5090060;28;20096;-72
2022/12/02 01:13:12;;;;;;;4.60;3.50;;;;;;;5.06;100.00;100964.13;5083602;28;20528;-72
2022/12/02 01:15:37;;;;;;;4.18;2.17;;;;;;;5.08;100.00;100967.44;5088472;28;20517;-71
2022/12/02 01:18:03;;;;;;;5.47;3.88;;;;;;;5.07;100.00;100965.78;5089695;28;20035;-72
2022/12/02 01:20:28;;;;;;;2.47;1.90;;;;;;;5.05;100.00;100965.88;5072679;28;20031;-72
2022/12/02 01:22:53;;;;;;;2.92;1.17;;;;;;;5.02;100.00;100962.66;5083862;28;20422;-72
2022/12/02 01:25:19;;;;;;;2.47;1.52;;;;;;;4.97;100.00;100966.38;5086055;28;20494;-72
2022/12/02 01:27:44;;;;;;;4.97;2.40;;;;;;;4.97;100.00;100961.19;5089747;28;20487;-72
2022/12/02 01:30:10;;;;;;;5.47;3.03;;;;;;;4.99;100.00;100969.69;5070677;28;20028;-72
2022/12/02 01:32:36;;;;;;;2.75;1.58;;;;;;;4.99;100.00;100966.25;5088664;28;20024;-72
2022/12/02 01:35:01;;;;;;;1.83;1.20;;;;;;;4.98;100.00;100968.03;5089190;28;20035;-72
2022/12/02 01:37:27;;;;;;;2.42;1.42;;;;;;;5.02;100.00;100967.81;5090504;28;20024;-72
2022/12/02 01:39:52;;;;;;;1.73;1.08;;;;;;;5.03;100.00;100972.06;5088671;28;20489;-72
2022/12/02 01:42:18;;;;;;;3.97;2.35;;;;;;;5.03;100.00;100969.50;5085905;28;20410;-72
2022/12/02 01:44:43;;;;;;;4.80;1.90;;;;;;;4.99;100.00;100961.94;5087607;28;20056;-72
2022/12/02 01:47:09;;;;;;;3.17;1.77;;;;;;;4.99;100.00;100963.69;5084580;28;20066;-72
2022/12/02 01:49:34;;;;;;;5.05;2.25;;;;;;;4.99;100.00;100964.50;5081521;28;20081;-72
2022/12/02 01:52:00;;;;;;;3.42;1.83;;;;;;;5.00;100.00;100970.50;5089328;28;20111;-72
2022/12/02 01:54:25;;;;;;;3.10;2.05;;;;;;;5.00;100.00;100968.75;5085669;28;20059;-72
2022/12/02 01:56:51;;;;;;;2.80;1.40;;;;;;;4.98;100.00;100960.28;5088893;28;20031;-72
2022/12/02 01:59:17;;;;;;;4.38;1.50;;;;;;;4.99;100.00;100964.50;5087180;28;20483;-72
2022/12/02 02:01:43;;;;;;;2.25;1.38;;;;;;;5.00;100.00;100961.00;5089428;28;20044;-72
2022/12/02 02:04:10;;;;;;;4.10;2.83;;;;;;;4.95;100.00;100960.47;5088514;28;20044;-72
2022/12/02 02:06:40;;;;;;;6.47;3.45;;;;;;;4.95;100.00;100963.03;5089683;28;20024;-73
2022/12/02 02:09:06;;;;;;;5.28;2.05;;;;;;;4.97;100.00;100965.53;5087431;28;20118;-72
2022/12/02 02:11:33;;;;;;;5.05;2.97;;;;;;;4.99;100.00;100968.84;5088237;28;20103;-72
2022/12/02 02:13:59;;;;;;;3.92;2.35;;;;;;;4.99;100.00;100967.09;5088001;28;20181;-72
2022/12/02 02:16:25;;;;;;;2.03;1.58;;;;;;;5.02;100.00;100962.66;5068771;28;20035;-72
2022/12/02 02:18:50;;;;;;;3.00;2.20;;;;;;;5.03;100.00;100972.06;5086424;28;20035;-72
2022/12/02 02:21:23;;;;;;;3.08;1.77;;;;;;;5.02;100.00;100962.66;5089100;28;20032;-72
2022/12/02 02:23:49;;;;;;;3.08;1.05;;;;;;;5.00;100.00;100966.16;5084003;28;20046;-72
2022/12/02 02:26:15;;;;;;;2.10;1.42;;;;;;;4.92;100.00;100962.41;5088278;28;20111;-72
2022/12/02 02:28:40;;;;;;;4.07;1.92;;;;;;;4.92;100.00;100965.00;5087468;28;20109;-72
2022/12/02 02:31:06;;;;;;;2.35;1.60;;;;;;;4.89;100.00;100962.59;5085885;28;20463;-72
2022/12/02 02:33:33;;;;;;;2.92;1.50;;;;;;;4.88;100.00;100968.69;5088028;28;20068;-72
2022/12/02 02:35:59;;;;;;;2.72;1.48;;;;;;;4.86;100.00;100963.63;5088668;28;20042;-72
2022/12/02 02:38:28;;;;;;;1.75;1.15;;;;;;;4.87;100.00;100959.28;5086531;28;20329;-72
2022/12/02 02:40:54;;;;;;;1.67;0.90;;;;;;;4.85;100.00;100963.72;5087768;28;20035;-72
2022/12/02 02:43:23;;;;;;;1.77;1.00;;;;;;;4.88;100.00;100966.94;5086097;28;20042;-72
2022/12/02 02:45:50;;;;;;;1.65;1.20;;;;;;;4.91;100.00;100963.34;5086003;28;20059;-72
2022/12/02 02:48:17;;;;;;;4.03;1.02;;;;;;;4.88;100.00;100961.78;5089098;28;20032;-72
2022/12/02 02:50:45;;;;;;;2.67;1.25;;;;;;;4.90;100.00;100962.50;5079137;28;20024;-72
2022/12/02 02:53:16;;;;;;;2.05;1.13;;;;;;;4.91;100.00;100969.31;5086494;28;20425;-72
2022/12/02 02:55:42;;;;;;;1.38;0.88;;;;;;;4.90;100.00;100961.69;5082775;28;20024;-72
2022/12/02 02:58:25;;;;;;;3.55;1.23;;;;;;;4.93;100.00;100959.72;5086710;28;20036;-73
2022/12/02 03:01:17;;;;;;;1.83;1.27;;;;;;;4.91;100.00;100959.00;5086154;28;20028;-72
2022/12/02 03:03:49;;;;;;;3.28;1.60;;;;;;;4.92;100.00;100957.25;5081464;28;20068;-72
2022/12/02 03:06:15;;;;;;;2.60;1.15;;;;;;;4.89;100.00;100953.09;5090466;28;20024;-72
2022/12/02 03:08:45;;;;;;;2.13;0.90;;;;;;;4.92;100.00;100958.06;5088251;28;20028;-72
2022/12/02 03:11:11;;;;;;;2.45;0.80;;;;;;;4.92;100.00;100952.91;5091243;28;20039;-72
2022/12/02 03:13:38;;;;;;;1.52;0.85;;;;;;;4.94;100.00;100950.22;5087857;28;20761;-72
2022/12/02 03:16:08;;;;;;;1.20;0.80;;;;;;;4.94;100.00;100948.47;5087494;28;20059;-72
2022/12/02 03:18:34;;;;;;;2.17;1.02;;;;;;;4.90;100.00;100951.34;5090878;28;20134;-72
2022/12/02 03:21:01;;;;;;;1.67;0.90;;;;;;;4.90;100.00;100953.94;5096352;28;20034;-72
2022/12/02 03:23:29;;;;;;;1.60;0.90;;;;;;;4.88;100.00;100951.44;5090617;28;20389;-72
2022/12/02 03:25:55;;;;;;;1.60;0.80;;;;;;;4.90;100.00;100944.44;5095978;28;20081;-72
2022/12/02 03:28:21;;;;;;;2.40;1.52;;;;;;;4.90;100.00;100944.44;5090408;28;20130;-72
2022/12/02 03:30:47;;;;;;;2.58;1.65;;;;;;;4.85;100.00;100943.88;5091350;28;20114;-72
2022/12/02 03:33:12;;;;;;;3.10;1.85;;;;;;;4.86;100.00;100942.97;5086799;28;20111;-72
2022/12/02 03:35:38;;;;;;;6.45;3.20;;;;;;;4.87;100.00;100946.38;5089966;28;20024;-72
2022/12/02 03:38:03;;;;;;;2.95;1.58;;;;;;;4.89;100.00;100942.78;5076415;28;20032;-73
2022/12/02 03:40:29;;;;;;;3.05;1.65;;;;;;;4.89;100.00;100950.50;5090292;28;20043;-72
2022/12/02 03:42:55;;;;;;;2.45;1.35;;;;;;;4.87;100.00;100947.19;5093345;28;20471;-72
2022/12/02 03:45:21;;;;;;;2.28;1.35;;;;;;;4.85;100.00;100946.47;5089330;28;20028;-72
2022/12/02 03:47:46;;;;;;;2.45;1.27;;;;;;;4.88;100.00;100945.44;5089819;28;20024;-72
2022/12/02 03:50:12;;;;;;;2.65;0.80;;;;;;;4.91;100.00;100935.75;5091123;28;20074;-72
2022/12/02 03:52:39;;;;;;;1.58;0.93;;;;;;;4.94;100.00;100940.72;5086643;28;20035;-72
2022/12/02 03:55:05;;;;;;;1.85;1.20;;;;;;;4.93;100.00;100943.41;5073751;28;20047;-72
2022/12/02 03:57:32;;;;;;;2.08;0.98;;;;;;;4.95;100.00;100938.97;5072067;28;20499;-72
2022/12/02 03:59:58;;;;;;;1.73;0.95;;;;;;;4.97;100.00;100934.53;5091802;28;20127;-72
2022/12/02 04:02:23;;;;;;;2.35;1.02;;;;;;;4.95;100.00;100939.81;5090929;28;20123;-72
2022/12/02 04:04:49;;;;;;;3.45;1.02;;;;;;;4.92;100.00;100937.41;5091799;28;20036;-72
2022/12/02 04:07:14;;;;;;;3.10;1.00;;;;;;;4.88;100.00;100946.28;5087989;28;20476;-72
2022/12/02 04:09:40;;;;;;;2.53;1.10;;;;;;;4.89;100.00;100941.94;5091084;28;20549;-72
2022/12/02 04:12:05;;;;;;;1.20;0.68;;;;;;;4.88;100.00;100946.28;5089129;28;20024;-73
2022/12/02 04:14:30;;;;;;;1.50;0.73;;;;;;;4.91;100.00;100934.94;5089012;28;20052;-72
2022/12/02 04:16:56;;;;;;;2.63;1.20;;;;;;;4.94;100.00;100943.31;5095387;28;20139;-72
2022/12/02 04:19:21;;;;;;;1.50;0.80;;;;;;;4.94;100.00;100945.06;5094588;28;20487;-72
2022/12/02 04:21:47;;;;;;;2.72;1.30;;;;;;;4.91;100.00;100935.75;5088963;28;20036;-72
2022/12/02 04:24:12;;;;;;;1.48;0.77;;;;;;;4.85;100.00;100933.56;5090612;28;20097;-72
2022/12/02 04:26:38;;;;;;;2.03;1.23;;;;;;;4.81;100.00;100937.25;5086451;28;20039;-73
2022/12/02 04:29:03;;;;;;;2.55;1.77;;;;;;;4.79;100.00;100933.94;5085622;28;20522;-72
2022/12/02 04:31:29;;;;;;;3.45;2.22;;;;;;;4.79;100.00;100940.84;5085518;28;20036;-72
2022/12/02 04:33:54;;;;;;;2.53;1.77;;;;;;;4.76;100.00;100939.28;5091906;28;20028;-72
2022/12/02 04:36:20;;;;;;;2.83;2.22;;;;;;;4.76;100.00;100941.03;5087121;28;20031;-72
2022/12/02 04:38:45;;;;;;;3.80;2.53;;;;;;;4.83;100.00;100942.31;5086961;28;20024;-72
2022/12/02 04:41:10;;;;;;;3.67;2.08;;;;;;;4.86;100.00;100937.78;5091325;28;20074;-72
2022/12/02 04:43:36;;;;;;;3.35;1.98;;;;;;;4.87;100.00;100943.78;5090182;28;20472;-72
2022/12/02 04:46:01;;;;;;;3.33;1.98;;;;;;;4.88;100.00;100935.94;5089501;28;20023;-72
2022/12/02 04:48:27;;;;;;;2.33;1.45;;;;;;;4.90;100.00;100939.25;5086938;28;20023;-72
2022/12/02 04:50:52;;;;;;;3.10;1.45;;;;;;;4.91;100.00;100940.91;5092305;28;20028;-72
2022/12/02 04:53:18;;;;;;;1.70;1.20;;;;;;;4.89;100.00;100927.28;5089902;28;20040;-72
2022/12/02 04:55:45;;;;;;;3.20;1.65;;;;;;;4.90;100.00;100928.94;5087941;28;20024;-72
2022/12/02 04:58:11;;;;;;;3.45;1.80;;;;;;;4.91;100.00;100930.59;5089817;28;20035;-73
2022/12/02 05:00:36;;;;;;;3.05;1.67;;;;;;;4.90;100.00;100923.78;5083338;28;20361;-73
2022/12/02 05:03:02;;;;;;;4.05;2.42;;;;;;;4.91;100.00;100925.44;5088250;28;20032;-72
2022/12/02 05:05:27;;;;;;;1.63;1.13;;;;;;;4.91;100.00;100928.00;5088678;28;20808;-72
2022/12/02 05:07:53;;;;;;;24.48;13.68;;;;;;;4.93;100.00;100930.50;5085055;28;20109;-72
2022/12/02 05:10:18;;;;;;;34.47;18.75;;;;;;;4.95;100.00;100926.91;5088723;28;20061;-72
2022/12/02 05:12:44;;;;;;;43.58;23.60;;;;;;;4.93;100.00;100923.59;5086661;28;20036;-73
2022/12/02 05:15:09;;;;;;;16.92;10.00;;;;;;;4.96;100.00;100925.13;5090253;28;20110;-73
2022/12/02 05:17:35;;;;;;;23.20;12.02;;;;;;;4.97;100.00;100931.97;5093700;28;20046;-72
2022/12/02 05:20:00;;;;;;;23.40;13.48;;;;;;;4.94;100.00;100925.25;5088472;28;20032;-72
2022/12/02 05:22:26;;;;;;;19.73;11.27;;;;;;;4.93;100.00;100928.75;5086746;28;20020;-72
2022/12/02 05:24:51;;;;;;;17.55;8.50;;;;;;;4.95;100.00;100920.91;5087851;28;20044;-72
2022/12/02 05:27:17;;;;;;;8.10;5.10;;;;;;;4.95;100.00;100929.47;5086813;28;20024;-72
2022/12/02 05:29:42;;;;;;;9.90;5.25;;;;;;;4.97;100.00;100934.53;5089947;28;20030;-73
2022/12/02 05:32:08;;;;;;;11.45;6.22;;;;;;;4.96;100.00;100933.72;5096108;28;20036;-72
2022/12/02 05:34:33;;;;;;;11.35;5.97;;;;;;;4.99;100.00;100938.69;5071137;28;20038;-72
2022/12/02 05:36:59;;;;;;;8.20;4.28;;;;;;;5.02;100.00;100939.41;5090510;28;20028;-72
2022/12/02 05:39:24;;;;;;;9.60;5.63;;;;;;;4.94;100.00;100940.72;5091714;28;20482;-72
2022/12/02 05:41:50;;;;;;;7.43;4.85;;;;;;;4.88;100.00;100948.84;5092159;28;20036;-72
2022/12/02 05:44:22;;;;;;;6.35;3.45;;;;;;;4.83;100.00;100939.75;5089046;28;20044;-72
2022/12/02 05:46:48;;;;;;;3.30;2.28;;;;;;;4.83;100.00;100944.91;5088301;28;20043;-72
2022/12/02 05:49:22;;;;;;;3.90;2.78;;;;;;;4.83;100.00;100942.31;5088460;28;20457;-72
2022/12/02 05:51:57;;;;;;;7.32;3.22;;;;;;;4.86;100.00;100948.13;5083843;28;20056;-72
2022/12/02 05:54:22;;;;;;;6.88;3.65;;;;;;;4.91;100.00;100940.91;5082689;28;20501;-72
2022/12/02 05:56:48;;;;;;;5.60;3.47;;;;;;;4.96;100.00;100944.03;5070252;28;20032;-72
2022/12/02 05:59:19;;;;;;;7.28;4.22;;;;;;;4.97;100.00;100952.63;5088966;28;20028;-72
2022/12/02 06:01:53;;;;;;;6.60;3.85;;;;;;;4.99;100.00;100955.94;5086387;28;20032;-73
2022/12/02 06:04:29;;;;;;;5.72;3.50;;;;;;;4.97;100.00;100950.88;5086415;28;20020;-72
2022/12/02 06:06:58;;;;;;;4.70;3.45;;;;;;;4.96;100.00;100949.22;5084764;28;20035;-72
2022/12/02 06:09:27;;;;;;;8.55;4.25;;;;;;;4.95;100.00;100955.31;5087273;28;20036;-72
2022/12/02 06:11:53;;;;;;;5.47;3.30;;;;;;;4.96;100.00;100948.38;5088855;28;20035;-73
2022/12/02 06:14:22;;;;;;;8.00;3.17;;;;;;;4.96;100.00;100949.22;5086690;28;20040;-72
2022/12/02 06:16:54;;;;;;;3.42;2.20;;;;;;;4.95;100.00;100952.72;5083063;28;20032;-73
2022/12/02 06:19:24;;;;;;;3.25;2.15;;;;;;;4.97;100.00;100960.38;5086242;28;20036;-73
2022/12/02 06:21:50;;;;;;;3.40;2.58;;;;;;;4.97;100.00;100956.03;5092670;28;20027;-72
2022/12/02 06:24:23;;;;;;;4.32;2.17;;;;;;;4.97;100.00;100956.03;5080972;28;20412;-73
2022/12/02 06:26:50;;;;;;;1.50;1.33;;;;;;;4.98;100.00;100954.28;5092247;28;20089;-73
2022/12/02 06:29:18;;;;;;;2.25;1.40;;;;;;;4.99;100.00;100954.19;5082790;28;20042;-73
2022/12/02 06:31:44;;;;;;;3.35;1.55;;;;;;;5.00;100.00;100961.00;5083269;28;20028;-73
2022/12/02 06:34:18;;;;;;;2.83;1.50;;;;;;;4.97;100.00;100961.19;5086339;28;20036;-72
2022/12/02 06:36:43;;;;;;;2.42;1.60;;;;;;;4.97;100.00;100962.94;5088861;28;20032;-73
2022/12/02 06:39:20;;;;;;;3.28;1.30;;;;;;;4.99;100.00;100959.34;5088820;28;20098;-73
2022/12/02 06:41:46;;;;;;;2.80;1.40;;;;;;;5.02;100.00;100962.66;5079251;28;20039;-72
2022/12/02 06:47:36;;;;;;;2.53;1.65;;;;;;;5.02;100.00;100966.06;5084639;28;20109;-72
2022/12/02 06:50:05;;;;;;;3.80;2.00;;;;;;;5.06;100.00;100964.97;5072584;28;20042;-72
2022/12/02 06:52:37;;;;;;;3.60;2.22;;;;;;;5.08;100.00;100962.28;5085413;28;20032;-73
2022/12/02 06:55:27;;;;;;;11.25;5.95;;;;;;;5.07;100.00;100968.38;5087155;28;20131;-73
2022/12/02 06:57:52;;;;;;;9.70;5.53;;;;;;;5.07;100.00;100965.78;5067005;28;20426;-72
2022/12/02 07:00:18;;;;;;;7.20;4.03;;;;;;;5.02;100.00;100962.66;5089383;28;20029;-72
2022/12/02 07:02:44;;;;;;;4.68;2.47;;;;;;;4.96;100.00;100963.88;5073738;28;20051;-73
2022/12/02 07:05:18;;;;;;;3.70;2.75;;;;;;;4.97;100.00;100968.13;5087142;28;20032;-72
2022/12/02 07:07:43;;;;;;;4.65;2.85;;;;;;;4.98;100.00;100968.03;5095565;28;20036;-72
2022/12/02 07:10:20;;;;;;;5.00;3.20;;;;;;;4.93;100.00;100970.06;5075397;28;20505;-73
2022/12/02 07:12:46;;;;;;;4.15;3.05;;;;;;;4.96;100.00;100964.69;5096171;28;20036;-72
2022/12/02 07:15:33;;;;;;;3.70;1.83;;;;;;;4.96;100.00;100969.03;5088571;28;20053;-73
2022/12/02 07:18:08;;;;;;;5.75;2.83;;;;;;;4.99;100.00;100969.69;5088446;28;20039;-72
2022/12/02 07:20:36;;;;;;;4.35;2.35;;;;;;;5.00;100.00;100980.84;5089603;28;20020;-73
2022/12/02 07:23:23;;;;;;;5.60;3.05;;;;;;;5.12;100.00;100980.06;5093674;28;20024;-72
2022/12/02 07:25:54;;;;;;;6.47;4.35;;;;;;;5.23;100.00;100985.34;5087072;28;20842;-72
2022/12/02 07:28:31;;;;;;;7.10;4.55;;;;;;;5.26;100.00;100977.41;5075792;28;20035;-73
2022/12/02 07:31:09;;;;;;;3.88;3.17;;;;;;;5.17;100.00;100974.63;5090930;28;20032;-72
2022/12/02 07:33:34;;;;;;;6.68;3.90;;;;;;;5.22;100.00;100977.72;5086126;28;20046;-72
2022/12/02 07:36:00;;;;;;;2.90;1.63;;;;;;;5.18;100.00;100978.84;5090805;28;20036;-72
2022/12/02 07:38:25;;;;;;;2.35;1.77;;;;;;;5.20;100.00;100982.16;5087916;28;20035;-73
2022/12/02 07:40:51;;;;;;;3.00;2.13;;;;;;;5.25;100.00;100982.69;5099075;28;20032;-72
2022/12/02 07:43:16;;;;;;;3.10;2.10;;;;;;;5.24;100.00;100979.28;5091203;28;20024;-72
2022/12/02 07:45:42;;;;;;;3.15;2.17;;;;;;;5.19;100.00;100970.19;5085197;28;20078;-72
2022/12/02 07:48:07;;;;;;;3.65;2.33;;;;;;;5.17;100.00;100975.44;5088592;28;20047;-72
2022/12/02 07:50:33;;;;;;;3.70;2.28;;;;;;;5.23;100.00;100969.84;5085336;28;20024;-72
2022/12/02 07:52:58;;;;;;;2.70;2.13;;;;;;;5.25;100.00;100964.59;5092944;28;20084;-72
2022/12/02 07:55:24;;;;;;;2.90;2.05;;;;;;;5.25;100.00;100980.09;5089336;28;20085;-72
2022/12/02 07:57:49;;;;;;;1.88;1.33;;;;;;;5.28;100.00;100979.91;5094289;28;20039;-72
2022/12/02 08:00:15;;;;;;;4.60;1.70;;;;;;;5.31;100.00;100984.88;5090340;28;20047;-72
2022/12/02 08:02:41;;;;;;;3.83;1.92;;;;;;;5.38;100.00;100980.16;5086763;28;20024;-72
2022/12/02 08:05:07;;;;;;;2.63;1.75;;;;;;;5.41;100.00;100974.78;5090844;28;20016;-72
2022/12/02 08:07:32;;;;;;;3.88;2.97;;;;;;;5.39;100.00;100985.22;5087307;28;20159;-72
2022/12/02 08:09:58;;;;;;;3.67;2.42;;;;;;;5.37;100.00;100989.66;5091154;28;20115;-72
2022/12/02 08:12:23;;;;;;;2.97;2.05;;;;;;;5.46;100.00;100986.47;5090575;28;20035;-72
2022/12/02 08:14:49;;;;;;;2.97;2.67;;;;;;;5.54;100.00;100983.41;5090121;28;20020;-70
2022/12/02 08:17:14;;;;;;;5.22;3.00;;;;;;;5.59;100.00;100987.34;5090562;28;20530;-70
2022/12/02 08:19:40;;;;;;;10.02;2.53;;;;;;;5.63;100.00;100983.63;5092282;28;20039;-70
2022/12/02 08:22:06;;;;;;;4.70;1.58;;;;;;;5.68;100.00;100983.31;5089458;28;20050;-70
2022/12/02 08:24:32;;;;;;;2.17;1.35;;;;;;;5.67;100.00;100992.81;5091778;28;20178;-69
2022/12/02 08:26:57;;;;;;;1.83;1.23;;;;;;;5.64;100.00;100993.06;5090663;28;20048;-69
2022/12/02 08:29:23;;;;;;;2.92;1.23;;;;;;;5.66;100.00;100991.19;5089172;28;20024;-70
2022/12/02 08:31:48;;;;;;;2.88;1.00;;;;;;;5.72;100.00;100989.09;5083968;28;20039;-70
2022/12/02 08:34:14;;;;;;;1.80;1.10;;;;;;;5.73;100.00;100990.75;5095309;28;20123;-69
2022/12/02 08:36:40;;;;;;;1.15;0.73;;;;;;;5.73;100.00;100996.78;5092811;28;20035;-69
2022/12/02 08:39:05;;;;;;;1.50;0.73;;;;;;;5.80;100.00;100997.19;5086562;28;20028;-69
2022/12/02 08:41:35;;;;;;;1.08;0.68;;;;;;;5.86;100.00;101001.97;5089390;28;20091;-70
2022/12/02 08:44:00;;;;;;;1.00;0.60;;;;;;;5.87;100.00;100999.28;5085640;28;20027;-69
2022/12/02 08:46:28;;;;;;;1.05;0.60;;;;;;;5.90;100.00;101000.88;5087503;28;20119;-69
2022/12/02 08:48:54;;;;;;;1.35;0.70;;;;;;;5.94;100.00;101000.56;5087958;28;20028;-69
2022/12/02 08:51:19;;;;;;;1.85;0.73;;;;;;;5.97;100.00;101000.38;5087809;28;20079;-69
2022/12/02 08:53:45;;;;;;;1.95;0.88;;;;;;;5.97;100.00;101002.13;5090367;28;20031;-71
2022/12/02 08:56:10;;;;;;;1.50;0.70;;;;;;;6.02;100.00;100997.47;5091597;28;20058;-71
2022/12/02 08:58:36;;;;;;;1.80;0.90;;;;;;;6.07;100.00;101005.75;5082119;28;20103;-71
2022/12/02 09:01:01;;;;;;;1.50;0.60;;;;;;;6.07;100.00;100999.75;5090388;28;20161;-72
2022/12/02 09:03:27;;;;;;;1.33;0.77;;;;;;;6.11;100.00;101003.81;5068530;28;20024;-72
2022/12/02 09:05:52;;;;;;;1.80;0.80;;;;;;;6.18;100.00;100997.25;5087975;28;20446;-70
2022/12/02 09:08:18;;;;;;;2.35;1.40;;;;;;;6.24;100.00;101002.03;5086040;28;20024;-71
2022/12/02 09:10:43;;;;;;;4.43;2.13;;;;;;;6.30;100.00;101004.19;5084675;28;20423;-70
2022/12/02 09:13:08;;;;;;;4.72;2.10;;;;;;;6.33;100.00;101002.22;5093514;28;20105;-70
2022/12/02 09:15:34;;;;;;;4.00;2.15;;;;;;;6.36;100.00;101005.53;5088426;28;20040;-70
2022/12/02 09:17:59;;;;;;;4.70;2.30;;;;;;;6.41;100.00;101006.06;5088841;28;20061;-70
2022/12/02 09:20:25;;;;;;;7.63;2.90;;;;;;;6.51;100.00;101013.09;5092795;28;20031;-70
2022/12/02 09:22:50;;;;;;;5.70;3.53;;;;;;;6.61;100.00;100995.19;5091869;28;20020;-70
2022/12/02 09:25:16;;;;;;;6.75;3.28;;;;;;;6.62;100.00;100997.63;5089040;28;20090;-70
2022/12/02 09:27:42;;;;;;;4.80;2.80;;;;;;;6.72;100.00;101002.19;5071466;28;20043;-71
2022/12/02 09:30:09;;;;;;;8.40;5.03;;;;;;;6.77;100.00;101003.50;5089630;28;20032;-71
2022/12/02 09:32:34;;;;;;;5.57;4.28;;;;;;;6.83;100.00;100994.50;5089063;28;20032;-71
2022/12/02 09:35:00;;;;;;;9.38;5.40;;;;;;;6.91;100.00;101003.38;5085790;28;20031;-70
2022/12/02 09:37:26;;;;;;;8.65;4.97;;;;;;;6.99;100.00;101006.25;5093593;28;20119;-71
2022/12/02 09:39:52;;;;;;;5.43;3.35;;;;;;;6.98;100.00;101002.03;5089870;28;20182;-71
2022/12/02 09:42:18;;;;;;;5.57;2.33;;;;;;;6.95;100.00;100994.47;5088457;28;20501;-71
2022/12/02 09:44:45;;;;;;;4.60;2.40;;;;;;;7.02;100.00;100996.63;5095024;28;20562;-71
2022/12/02 09:47:12;;;;;;;3.28;1.55;;;;;;;7.06;100.00;100998.06;5091370;28;20028;-69
2022/12/02 09:49:38;;;;;;;2.90;1.50;;;;;;;7.08;100.00;100994.44;5091698;28;20028;-72
2022/12/02 09:52:06;;;;;;;2.58;1.33;;;;;;;7.10;100.00;100991.69;5071822;28;20105;-71
2022/12/02 09:54:31;;;;;;;1.65;1.00;;;;;;;7.16;100.00;100988.66;5089441;28;20624;-72
2022/12/02 09:56:58;;;;;;;2.17;0.98;;;;;;;7.19;100.00;100993.63;5093090;28;20106;-71
2022/12/02 09:59:23;;;;;;;3.47;1.08;;;;;;;7.17;100.00;100998.09;5089754;28;20473;-72
2022/12/02 10:01:49;;;;;;;1.90;0.95;;;;;;;7.11;100.00;100994.19;5089499;28;20039;-72
2022/12/02 10:04:21;;;;;;;1.73;0.85;;;;;;;7.13;100.00;101001.84;5094036;28;20502;-72
2022/12/02 10:06:47;;;;;;;1.95;1.05;;;;;;;7.11;100.00;100999.34;5086910;28;20084;-72
2022/12/02 10:09:23;;;;;;;2.25;0.85;;;;;;;7.17;100.00;100995.50;5070717;28;20115;-72
2022/12/02 10:11:48;;;;;;;1.85;0.73;;;;;;;7.20;100.00;100987.50;5086820;28;20131;-72
2022/12/02 10:14:14;;;;;;;1.35;0.70;;;;;;;7.15;100.00;100990.44;5087910;28;20055;-72
2022/12/02 10:16:40;;;;;;;2.78;0.70;;;;;;;7.11;100.00;100985.56;5087339;28;20047;-72
2022/12/02 10:19:09;;;;;;;1.40;1.00;;;;;;;7.16;100.00;100986.06;5072372;28;20185;-72
2022/12/02 10:21:34;;;;;;;1.65;1.45;;;;;;;7.16;100.00;100986.06;5088927;28;20084;-72
2022/12/02 10:24:08;;;;;;;1.88;1.70;;;;;;;7.17;100.00;100985.13;5086121;28;20032;-73
2022/12/02 10:26:51;;;;;;;3.63;2.22;;;;;;;7.17;100.00;100983.38;5088717;28;20065;-72
2022/12/02 10:29:31;;;;;;;1.55;0.90;;;;;;;7.19;100.00;100980.69;5085340;28;20028;-73
2022/12/02 10:32:04;;;;;;;1.38;0.90;;;;;;;7.22;100.00;100973.50;5093391;28;20450;-72
2022/12/02 10:34:31;;;;;;;3.60;2.10;;;;;;;7.29;100.00;100979.09;5090967;28;20035;-71
2022/12/02 10:37:32;;;;;;;1.42;0.80;;;;;;;7.34;100.00;100979.56;5091957;28;20028;-71
2022/12/02 10:40:16;;;;;;;2.88;2.50;;;;;;;7.45;100.00;100982.22;5092910;28;20378;-69
2022/12/02 10:42:43;;;;;;;3.53;0.70;;;;;;;7.50;100.00;100981.88;5092155;28;20024;-69
2022/12/02 10:45:23;;;;;;;1.00;0.68;;;;;;;7.46;100.00;100970.91;5088351;28;20036;-69
2022/12/02 10:48:08;;;;;;;1.30;1.00;;;;;;;7.42;100.00;100974.66;5085177;28;20024;-69
2022/12/02 10:50:34;;;;;;;1.63;1.00;;;;;;;7.40;100.00;100979.13;5091128;28;20437;-69
2022/12/02 10:53:00;;;;;;;1.30;0.98;;;;;;;7.40;100.00;100980.91;5087394;28;20061;-70
2022/12/02 10:55:26;;;;;;;2.40;0.82;;;;;;;7.36;100.00;100980.28;5092521;28;20406;-69
2022/12/02 10:57:54;;;;;;;0.95;0.60;;;;;;;7.30;100.00;100978.16;5095927;28;20059;-70
2022/12/02 11:00:24;;;;;;;1.27;0.73;;;;;;;7.28;100.00;100969.66;5091575;28;20093;-69
2022/12/02 11:02:55;;;;;;;1.17;0.80;;;;;;;7.32;100.00;100971.09;5100080;28;20413;-69
2022/12/02 11:05:32;;;;;;;1.30;0.63;;;;;;;7.34;100.00;100969.22;5081159;28;20123;-69
2022/12/02 11:08:25;;;;;;;2.75;0.60;;;;;;;7.39;100.00;100969.72;5086895;28;20023;-71
2022/12/02 11:11:12;;;;;;;2.85;1.08;;;;;;;7.43;100.00;100978.91;5089130;28;20027;-70
2022/12/02 11:13:55;;;;;;;2.65;1.73;;;;;;;7.47;100.00;100979.53;5092851;28;20075;-71
2022/12/02 11:16:26;;;;;;;1.60;0.80;;;;;;;7.57;100.00;100970.94;5083122;28;20034;-71
2022/12/02 11:19:08;;;;;;;2.53;1.02;;;;;;;7.60;100.00;100973.28;5089245;28;20044;-72
2022/12/02 11:21:39;;;;;;;2.65;2.03;;;;;;;7.70;100.00;100973.44;5097315;28;20028;-73
2022/12/02 11:24:23;;;;;;;2.17;0.50;;;;;;;7.72;100.00;100968.16;5095112;28;20393;-72
2022/12/02 11:27:03;;;;;;;1.67;0.63;;;;;;;7.70;100.00;100973.44;5090767;28;20047;-72
2022/12/02 11:29:42;;;;;;;3.28;0.63;;;;;;;7.65;100.00;100970.38;5095405;28;20031;-71
2022/12/02 11:32:25;;;;;;;1.42;0.70;;;;;;;7.68;100.00;100967.56;5093091;28;20479;-71
2022/12/02 11:34:53;;;;;;;1.75;0.68;;;;;;;7.71;100.00;100969.91;5095110;28;20028;-72
2022/12/02 11:37:35;;;;;;;1.00;0.57;;;;;;;7.74;100.00;100971.47;5091424;28;20567;-72